createdAt,value
2023-01-20T00:01:24.595Z,12.20
2023-01-20T00:03:52.863Z,13.07
2023-01-20T00:06:20.080Z,13.60
2023-01-20T00:08:51.154Z,15.27
2023-01-20T00:11:18.625Z,14.50
2023-01-20T00:13:45.078Z,13.63
2023-01-20T00:16:12.040Z,12.83
2023-01-20T00:18:39.860Z,13.77
2023-01-20T00:21:13.085Z,14.30
2023-01-20T00:23:40.961Z,13.30
2023-01-20T00:26:10.805Z,13.63
2023-01-20T00:28:37.829Z,13.37
2023-01-20T00:31:22.781Z,13.27
2023-01-20T00:33:50.981Z,12.70
2023-01-20T00:36:18.992Z,12.03
2023-01-20T00:38:45.458Z,12.67
2023-01-20T00:41:12.707Z,12.33
2023-01-20T00:43:39.421Z,12.63
2023-01-20T00:46:06.561Z,11.83
2023-01-20T00:48:34.112Z,11.60
2023-01-20T00:51:01.339Z,11.40
2023-01-20T00:53:28.113Z,12.83
2023-01-20T00:55:54.620Z,12.87
2023-01-20T00:58:21.389Z,11.97
2023-01-20T01:00:49.484Z,13.40
2023-01-20T01:03:16.507Z,12.90
2023-01-20T01:05:43.259Z,13.40
2023-01-20T01:08:09.881Z,14.10
2023-01-20T01:10:36.416Z,13.33
2023-01-20T01:13:04.263Z,15.33
2023-01-20T01:15:31.165Z,16.53
2023-01-20T01:17:58.799Z,15.10
2023-01-20T01:20:26.166Z,13.27
2023-01-20T01:22:52.622Z,14.43
2023-01-20T01:25:19.727Z,19.23
2023-01-20T01:27:46.303Z,25.57
2023-01-20T01:30:13.102Z,29.43
2023-01-20T01:32:39.889Z,26.13
2023-01-20T01:35:06.737Z,20.67
2023-01-20T01:37:33.257Z,17.37
2023-01-20T01:39:59.723Z,14.20
2023-01-20T01:42:26.740Z,12.47
2023-01-20T01:45:20.296Z,11.47
2023-01-20T01:47:52.923Z,11.70
2023-01-20T01:50:35.201Z,11.10
2023-01-20T01:53:01.766Z,12.10
2023-01-20T01:55:31.334Z,11.90
2023-01-20T01:57:59.786Z,13.03
2023-01-20T02:00:26.624Z,11.60
2023-01-20T02:02:54.676Z,12.53
2023-01-20T02:05:22.851Z,12.63
2023-01-20T02:07:50.019Z,12.97
2023-01-20T02:10:17.431Z,13.03
2023-01-20T02:12:47.281Z,13.13
2023-01-20T02:15:14.378Z,12.60
2023-01-20T02:18:24.830Z,12.67
2023-01-20T02:21:24.190Z,13.17
2023-01-20T02:24:22.891Z,12.23
2023-01-20T02:27:08.571Z,11.90
2023-01-20T02:30:03.980Z,11.87
2023-01-20T02:32:49.234Z,12.30
2023-01-20T02:35:25.647Z,11.70
2023-01-20T02:38:12.599Z,12.50
2023-01-20T02:40:46.138Z,12.80
2023-01-20T02:43:15.651Z,12.93
2023-01-20T02:45:52.842Z,13.37
2023-01-20T02:48:53.428Z,14.87
2023-01-20T02:55:11.860Z,14.17
2023-01-20T02:57:52.599Z,14.77
2023-01-20T03:00:42.852Z,14.13
2023-01-20T03:03:14.090Z,14.73
2023-01-20T03:05:45.745Z,14.17
2023-01-20T03:08:13.086Z,15.47
2023-01-20T03:10:42.221Z,16.43
2023-01-20T03:13:18.891Z,17.50
2023-01-20T03:16:00.446Z,17.57
2023-01-20T03:18:29.464Z,18.57
2023-01-20T03:20:58.701Z,18.10
2023-01-20T03:23:28.011Z,17.27
2023-01-20T03:25:55.298Z,17.10
2023-01-20T03:28:21.744Z,17.17
2023-01-20T03:30:48.627Z,18.53
2023-01-20T03:33:17.482Z,17.83
2023-01-20T03:35:44.391Z,18.33
2023-01-20T03:38:11.089Z,18.60
2023-01-20T03:40:53.746Z,17.37
2023-01-20T03:43:29.412Z,17.70
2023-01-20T03:46:02.547Z,17.27
2023-01-20T03:48:41.906Z,17.63
2023-01-20T03:51:13.739Z,17.27
2023-01-20T03:53:51.035Z,16.80
2023-01-20T03:56:51.216Z,18.20
2023-01-20T03:59:20.451Z,17.93
2023-01-20T04:01:47.270Z,17.57
2023-01-20T04:04:19.268Z,17.53
2023-01-20T04:06:48.903Z,18.47
2023-01-20T04:09:24.867Z,17.80
2023-01-20T04:11:51.601Z,19.00
2023-01-20T04:14:18.135Z,17.83
2023-01-20T04:16:52.471Z,19.17
2023-01-20T04:19:18.862Z,17.97
2023-01-20T04:22:17.795Z,17.50
2023-01-20T04:24:52.897Z,18.30
2023-01-20T04:27:19.352Z,17.00
2023-01-20T04:29:46.448Z,18.03
2023-01-20T04:32:12.924Z,17.60
2023-01-20T04:34:39.556Z,17.57
2023-01-20T04:37:05.943Z,17.93
2023-01-20T04:39:32.361Z,17.40
2023-01-20T04:41:58.747Z,18.20
2023-01-20T04:44:25.187Z,17.03
2023-01-20T04:46:56.658Z,17.23
2023-01-20T04:49:23.063Z,16.63
2023-01-20T04:51:49.456Z,16.33
2023-01-20T04:54:15.904Z,17.33
2023-01-20T04:56:43.248Z,17.47
2023-01-20T04:59:09.762Z,16.40
2023-01-20T05:01:36.345Z,17.07
2023-01-20T05:04:02.838Z,16.87
2023-01-20T05:06:29.221Z,17.17
2023-01-20T05:08:55.667Z,16.20
2023-01-20T05:11:22.160Z,17.60
2023-01-20T05:13:48.570Z,16.57
2023-01-20T05:16:15.069Z,16.97
2023-01-20T05:18:41.506Z,16.37
2023-01-20T05:21:08.734Z,16.10
2023-01-20T05:23:35.481Z,16.33
2023-01-20T05:26:01.918Z,15.50
2023-01-20T05:28:28.323Z,15.80
2023-01-20T05:30:55.058Z,15.67
2023-01-20T05:33:21.531Z,16.10
2023-01-20T05:35:47.984Z,16.77
2023-01-20T05:38:14.410Z,15.33
2023-01-20T05:40:40.817Z,16.33
2023-01-20T05:43:07.221Z,15.73
2023-01-20T05:45:33.687Z,15.97
2023-01-20T05:48:00.583Z,16.67
2023-01-20T05:50:28.174Z,16.33
2023-01-20T05:52:54.592Z,16.97
2023-01-20T05:55:21.628Z,15.37
2023-01-20T05:57:48.014Z,15.90
2023-01-20T06:00:14.853Z,16.20
2023-01-20T06:02:41.826Z,16.07
2023-01-20T06:05:08.426Z,16.73
2023-01-20T06:07:34.893Z,17.57
2023-01-20T06:10:02.422Z,16.90
2023-01-20T06:12:28.831Z,16.47
2023-01-20T06:14:55.239Z,18.07
2023-01-20T06:17:21.716Z,18.27
2023-01-20T06:19:48.143Z,17.17
2023-01-20T06:22:15.498Z,16.20
2023-01-20T06:24:42.023Z,16.87
2023-01-20T06:27:09.397Z,16.33
2023-01-20T06:29:36.043Z,15.30
2023-01-20T06:32:02.587Z,16.07
2023-01-20T06:34:29.014Z,17.30
2023-01-20T06:36:56.055Z,16.27
2023-01-20T06:39:22.657Z,15.73
2023-01-20T06:41:49.161Z,16.67
2023-01-20T06:44:16.677Z,16.20
2023-01-20T06:46:43.161Z,16.80
2023-01-20T06:49:09.775Z,17.43
2023-01-20T06:51:36.311Z,17.63
2023-01-20T06:54:02.750Z,17.07
2023-01-20T06:56:29.281Z,17.63
2023-01-20T06:58:55.729Z,17.47
2023-01-20T07:01:25.247Z,17.93
2023-01-20T07:03:52.067Z,19.33
2023-01-20T07:06:31.671Z,18.70
2023-01-20T07:08:59.625Z,19.43
2023-01-20T07:11:26.994Z,23.37
2023-01-20T07:13:53.439Z,28.03
2023-01-20T07:16:20.212Z,28.37
2023-01-20T07:18:51.703Z,28.73
2023-01-20T07:21:19.318Z,27.87
2023-01-20T07:23:46.278Z,21.07
2023-01-20T07:26:18.119Z,21.83
2023-01-20T07:28:44.689Z,19.63
2023-01-20T07:31:19.723Z,18.93
2023-01-20T07:33:46.760Z,20.07
2023-01-20T07:36:14.666Z,22.03
2023-01-20T07:38:41.313Z,25.77
2023-01-20T07:41:16.405Z,26.13
2023-01-20T07:43:44.312Z,26.83
2023-01-20T07:46:11.316Z,26.77
2023-01-20T07:48:38.239Z,26.13
2023-01-20T07:51:07.470Z,23.80
2023-01-20T07:53:52.153Z,22.87
2023-01-20T07:56:24.703Z,21.47
2023-01-20T07:58:51.897Z,22.37
2023-01-20T08:01:22.830Z,20.67
2023-01-20T08:03:49.847Z,21.93
2023-01-20T08:06:19.192Z,20.90
2023-01-20T08:08:46.061Z,21.30
2023-01-20T08:11:14.203Z,22.13
2023-01-20T08:13:41.461Z,20.07
2023-01-20T08:16:10.673Z,17.93
2023-01-20T08:18:38.029Z,17.87
2023-01-20T08:21:08.033Z,15.93
2023-01-20T08:23:35.743Z,15.47
2023-01-20T08:26:05.296Z,20.20
2023-01-20T08:28:36.314Z,20.53
2023-01-20T08:31:09.900Z,19.33
2023-01-20T08:33:37.198Z,18.50
2023-01-20T08:36:16.119Z,18.87
2023-01-20T08:38:43.718Z,17.73
2023-01-20T08:41:18.304Z,17.67
2023-01-20T08:43:45.046Z,18.03
2023-01-20T08:46:13.819Z,17.47
2023-01-20T08:48:42.081Z,19.90
2023-01-20T08:51:14.034Z,18.47
2023-01-20T08:53:40.682Z,18.33
2023-01-20T08:56:07.512Z,19.17
2023-01-20T08:58:34.867Z,16.50
2023-01-20T09:01:14.050Z,16.33
2023-01-20T09:03:45.064Z,16.63
2023-01-20T09:06:16.622Z,15.07
2023-01-20T09:08:43.402Z,14.47
2023-01-20T09:11:15.477Z,15.17
2023-01-20T09:13:42.400Z,15.03
2023-01-20T09:16:12.098Z,15.17
2023-01-20T09:18:38.928Z,14.27
2023-01-20T09:21:08.752Z,15.07
2023-01-20T09:23:36.799Z,15.53
2023-01-20T09:26:04.700Z,14.70
2023-01-20T09:28:31.636Z,14.83
2023-01-20T09:30:59.344Z,15.37
2023-01-20T09:33:25.885Z,14.60
2023-01-20T09:35:56.344Z,14.67
2023-01-20T09:38:41.463Z,13.93
2023-01-20T09:41:46.455Z,14.87
2023-01-20T09:44:43.157Z,13.87
2023-01-20T09:47:21.333Z,13.13
2023-01-20T09:50:34.521Z,13.50
2023-01-20T09:53:15.272Z,12.03
2023-01-20T09:55:56.921Z,11.93
2023-01-20T09:58:32.491Z,11.73
2023-01-20T10:01:12.802Z,12.67
2023-01-20T10:03:56.994Z,12.53
2023-01-20T10:06:31.730Z,13.27
2023-01-20T10:09:06.208Z,12.83
2023-01-20T10:11:41.218Z,13.37
2023-01-20T10:14:19.784Z,12.83
2023-01-20T10:17:25.071Z,13.20
2023-01-20T10:19:58.913Z,11.70
2023-01-20T10:22:40.071Z,12.90
2023-01-20T10:25:13.295Z,12.93
2023-01-20T10:27:49.160Z,11.60
2023-01-20T10:30:16.695Z,12.30
2023-01-20T10:32:54.957Z,11.67
2023-01-20T10:35:25.859Z,12.10
2023-01-20T10:37:53.248Z,13.03
2023-01-20T10:40:35.072Z,11.90
2023-01-20T10:43:10.034Z,11.10
2023-01-20T10:45:56.773Z,10.90
2023-01-20T10:49:03.389Z,11.00
2023-01-20T10:51:45.408Z,9.57
2023-01-20T10:54:29.963Z,8.10
2023-01-20T10:57:00.133Z,7.80
2023-01-20T10:59:41.049Z,8.87
2023-01-20T11:02:30.307Z,8.53
2023-01-20T11:05:00.927Z,8.90
2023-01-20T11:07:29.856Z,9.13
2023-01-20T11:09:56.340Z,9.07
2023-01-20T11:12:27.263Z,8.27
2023-01-20T11:15:00.254Z,7.83
2023-01-20T11:17:26.785Z,7.50
2023-01-20T11:19:56.703Z,6.33
2023-01-20T11:22:30.265Z,5.80
2023-01-20T11:24:59.020Z,6.17
2023-01-20T11:27:29.791Z,5.80
2023-01-20T11:30:03.779Z,5.30
2023-01-20T11:32:35.132Z,5.90
2023-01-20T11:35:18.712Z,5.63
2023-01-20T11:37:45.212Z,5.90
2023-01-20T11:40:19.857Z,5.73
2023-01-20T11:42:48.280Z,5.60
2023-01-20T11:45:32.480Z,6.50
2023-01-20T11:48:08.121Z,5.10
2023-01-20T11:50:57.329Z,6.20
2023-01-20T11:53:26.628Z,6.23
2023-01-20T11:55:59.457Z,6.37
2023-01-20T11:58:29.075Z,5.77
2023-01-20T12:01:05.393Z,5.43
2023-01-20T12:03:50.329Z,5.23
2023-01-20T12:06:35.143Z,5.03
2023-01-20T12:09:15.471Z,5.17
2023-01-20T12:11:59.383Z,5.40
2023-01-20T12:14:34.117Z,6.57
2023-01-20T12:17:16.580Z,5.90
2023-01-20T12:20:06.266Z,6.10
2023-01-20T12:22:47.658Z,6.43
2023-01-20T12:25:22.348Z,8.67
2023-01-20T12:27:56.912Z,5.93
2023-01-20T12:30:41.166Z,6.63
2023-01-20T12:33:23.165Z,5.83
2023-01-20T12:36:19.336Z,5.87
2023-01-20T12:39:02.737Z,4.83
2023-01-20T12:41:56.850Z,4.40
2023-01-20T12:44:38.397Z,4.83
2023-01-20T12:47:21.977Z,4.20
2023-01-20T12:50:23.772Z,5.07
2023-01-20T12:53:16.954Z,5.17
2023-01-20T12:56:10.576Z,4.47
2023-01-20T12:59:20.839Z,4.97
2023-01-20T13:02:20.567Z,5.20
2023-01-20T13:04:54.728Z,5.03
2023-01-20T13:07:33.280Z,4.43
2023-01-20T13:10:39.574Z,4.47
2023-01-20T13:13:55.669Z,3.97
2023-01-20T13:16:43.354Z,4.60
2023-01-20T13:19:24.085Z,4.70
2023-01-20T13:22:06.501Z,4.43
2023-01-20T13:24:34.901Z,5.13
2023-01-20T13:27:01.917Z,4.33
2023-01-20T13:29:34.297Z,4.70
2023-01-20T13:32:00.991Z,4.53
2023-01-20T13:34:33.189Z,4.20
2023-01-20T13:37:02.475Z,4.87
2023-01-20T13:39:40.829Z,4.73
2023-01-20T13:42:38.199Z,4.73
2023-01-20T13:45:14.436Z,4.80
2023-01-20T13:47:54.700Z,4.77
2023-01-20T13:50:28.698Z,4.60
2023-01-20T13:52:57.853Z,4.27
2023-01-20T13:55:49.227Z,4.50
2023-01-20T13:58:24.514Z,4.67
2023-01-20T14:01:06.045Z,4.30
2023-01-20T14:03:39.826Z,4.47
2023-01-20T14:06:13.364Z,4.70
2023-01-20T14:08:45.871Z,4.93
2023-01-20T14:11:15.596Z,4.93
2023-01-20T14:13:52.149Z,4.73
2023-01-20T14:16:25.598Z,4.93
2023-01-20T14:18:54.297Z,5.53
2023-01-20T14:21:24.062Z,5.97
2023-01-20T14:23:51.507Z,6.33
2023-01-20T14:26:31.555Z,6.70
2023-01-20T14:29:00.652Z,7.27
2023-01-20T14:31:43.613Z,6.37
2023-01-20T14:34:28.193Z,6.83
2023-01-20T14:36:59.980Z,6.83
2023-01-20T14:39:30.894Z,7.53
2023-01-20T14:42:01.424Z,9.23
2023-01-20T14:44:32.554Z,8.13
2023-01-20T14:47:01.318Z,7.50
2023-01-20T14:49:33.269Z,10.03
2023-01-20T14:52:01.122Z,9.83
2023-01-20T14:54:29.609Z,8.57
2023-01-20T14:56:58.227Z,10.17
2023-01-20T14:59:25.930Z,6.77
2023-01-20T15:02:01.580Z,5.57
2023-01-20T15:04:36.098Z,6.40
2023-01-20T15:07:03.435Z,6.37
2023-01-20T15:09:33.177Z,16.07
2023-01-20T15:12:30.585Z,4.80
2023-01-20T15:15:21.849Z,4.67
2023-01-20T15:18:23.327Z,7.37
2023-01-20T15:20:51.429Z,6.20
2023-01-20T15:23:38.907Z,5.70
2023-01-20T15:26:24.401Z,5.97
2023-01-20T15:28:50.939Z,4.73
2023-01-20T15:31:17.492Z,8.10
2023-01-20T15:33:44.530Z,14.53
2023-01-20T15:36:22.112Z,16.30
2023-01-20T15:38:49.132Z,8.70
2023-01-20T15:41:15.554Z,7.80
2023-01-20T15:43:42.524Z,8.27
2023-01-20T15:46:14.226Z,7.27
2023-01-20T15:48:41.335Z,5.30
2023-01-20T15:51:13.539Z,6.90
2023-01-20T15:53:40.380Z,6.83
2023-01-20T15:56:16.156Z,9.63
2023-01-20T15:58:42.653Z,6.27
2023-01-20T16:01:13.389Z,6.43
2023-01-20T16:03:39.830Z,7.97
2023-01-20T16:06:15.467Z,5.30
2023-01-20T16:08:46.039Z,9.23
2023-01-20T16:11:13.773Z,8.87
2023-01-20T16:13:40.957Z,8.90
2023-01-20T16:16:14.381Z,6.87
2023-01-20T16:18:41.447Z,5.27
2023-01-20T16:21:10.995Z,4.87
2023-01-20T16:23:37.782Z,4.30
2023-01-20T16:26:15.926Z,5.43
2023-01-20T16:28:42.370Z,5.10
2023-01-20T16:31:12.006Z,4.33
2023-01-20T16:33:38.586Z,4.97
2023-01-20T16:36:11.842Z,4.80
2023-01-20T16:38:40.515Z,6.20
2023-01-20T16:44:15.735Z,5.83
2023-01-20T16:46:42.619Z,6.00
2023-01-20T16:49:09.466Z,6.40
2023-01-20T16:51:36.266Z,6.47
2023-01-20T16:54:03.177Z,5.87
2023-01-20T16:56:32.639Z,7.50
2023-01-20T16:59:01.840Z,6.60
2023-01-20T17:01:30.296Z,6.73
2023-01-20T17:04:02.370Z,7.30
2023-01-20T17:06:32.088Z,7.63
2023-01-20T17:09:00.643Z,7.23
2023-01-20T17:11:32.973Z,7.10
2023-01-20T17:14:02.128Z,7.77
2023-01-20T17:16:31.401Z,8.77
2023-01-20T17:19:02.091Z,10.03
2023-01-20T17:21:33.471Z,13.10
2023-01-20T17:24:02.355Z,11.50
2023-01-20T17:26:29.654Z,11.17
2023-01-20T17:28:58.632Z,11.53
2023-01-20T17:31:25.853Z,11.53
2023-01-20T17:33:56.721Z,11.37
2023-01-20T17:36:23.385Z,10.83
2023-01-20T17:38:49.929Z,10.23
2023-01-20T17:41:16.687Z,11.53
2023-01-20T17:43:46.358Z,11.67
2023-01-20T17:46:19.834Z,14.60
2023-01-20T17:48:47.003Z,12.97
2023-01-20T17:51:16.127Z,15.10
2023-01-20T17:53:43.360Z,13.00
2023-01-20T17:56:13.042Z,14.87
2023-01-20T17:58:41.403Z,15.17
2023-01-20T18:01:21.887Z,13.80
2023-01-20T18:03:50.689Z,18.57
2023-01-20T18:06:19.702Z,13.03
2023-01-20T18:08:52.606Z,13.50
2023-01-20T18:11:20.436Z,12.57
2023-01-20T18:13:50.106Z,12.80
2023-01-20T18:16:19.169Z,13.17
2023-01-20T18:18:47.611Z,13.47
2023-01-20T18:21:23.025Z,11.60
2023-01-20T18:23:51.109Z,12.90
2023-01-20T18:26:22.791Z,15.60
2023-01-20T18:28:53.187Z,14.80
2023-01-20T18:31:22.016Z,17.20
2023-01-20T18:33:54.671Z,13.13
2023-01-20T18:36:28.189Z,12.20
2023-01-20T18:39:04.099Z,15.53
2023-01-20T18:41:32.687Z,12.30
2023-01-20T18:44:00.761Z,15.17
2023-01-20T18:46:31.036Z,11.93
2023-01-20T18:48:58.042Z,12.17
2023-01-20T18:51:27.406Z,17.73
2023-01-20T18:53:57.225Z,18.17
2023-01-20T18:56:25.078Z,12.77
2023-01-20T18:58:53.723Z,18.57
2023-01-20T19:01:23.992Z,27.37
2023-01-20T19:03:52.245Z,14.83
2023-01-20T19:06:27.978Z,14.03
2023-01-20T19:08:56.676Z,12.60
2023-01-20T19:11:29.327Z,14.07
2023-01-20T19:13:56.177Z,12.40
2023-01-20T19:16:28.195Z,11.07
2023-01-20T19:18:57.390Z,11.20
2023-01-20T19:21:25.601Z,11.87
2023-01-20T19:23:54.663Z,11.47
2023-01-20T19:26:22.752Z,11.77
2023-01-20T19:28:56.575Z,10.87
2023-01-20T19:31:23.764Z,11.40
2023-01-20T19:33:50.627Z,11.67
2023-01-20T19:36:19.196Z,10.17
2023-01-20T19:38:45.835Z,11.00
2023-01-20T19:41:14.879Z,15.80
2023-01-20T19:43:42.385Z,12.50
2023-01-20T19:46:14.987Z,13.37
2023-01-20T19:48:42.412Z,13.43
2023-01-20T19:51:12.400Z,15.23
2023-01-20T19:53:40.184Z,27.37
2023-01-20T19:56:12.952Z,19.93
2023-01-20T19:58:40.277Z,11.33
2023-01-20T20:01:13.170Z,12.83
2023-01-20T20:03:40.307Z,20.17
2023-01-20T20:06:08.481Z,18.67
2023-01-20T20:08:37.974Z,15.30
2023-01-20T20:11:04.522Z,13.47
2023-01-20T20:13:31.018Z,12.40
2023-01-20T20:16:04.761Z,10.23
2023-01-20T20:18:32.061Z,14.17
2023-01-20T20:20:58.941Z,25.10
2023-01-20T20:23:25.848Z,14.73
2023-01-20T20:25:56.232Z,12.90
2023-01-20T20:28:28.125Z,21.60
2023-01-20T20:30:55.484Z,15.40
2023-01-20T20:33:25.298Z,14.13
2023-01-20T20:35:51.836Z,10.20
2023-01-20T20:38:18.731Z,12.50
2023-01-20T20:40:45.221Z,12.27
2023-01-20T20:43:11.789Z,11.53
2023-01-20T20:45:38.538Z,12.77
2023-01-20T20:48:05.753Z,28.30
2023-01-20T20:50:32.404Z,15.60
2023-01-20T20:52:59.145Z,11.77
2023-01-20T20:55:26.333Z,11.67
2023-01-20T20:57:52.967Z,10.83
2023-01-20T21:00:23.431Z,12.60
2023-01-20T21:02:50.376Z,21.77
2023-01-20T21:05:18.863Z,27.00
2023-01-20T21:07:45.863Z,31.57
2023-01-20T21:10:14.059Z,32.23
2023-01-20T21:12:40.983Z,27.17
2023-01-20T21:15:08.786Z,17.17
2023-01-20T21:17:35.293Z,14.70
2023-01-20T21:20:02.098Z,12.87
2023-01-20T21:22:28.694Z,12.67
2023-01-20T21:24:55.237Z,11.20
2023-01-20T21:27:21.879Z,11.87
2023-01-20T21:29:48.329Z,11.10
2023-01-20T21:32:15.826Z,11.80
2023-01-20T21:34:42.389Z,11.37
2023-01-20T21:37:09.049Z,11.20
2023-01-20T21:39:35.589Z,11.90
2023-01-20T21:42:02.130Z,12.97
2023-01-20T21:44:28.672Z,13.57
2023-01-20T21:47:10.480Z,14.87
2023-01-20T21:49:55.712Z,14.27
2023-01-20T21:52:42.262Z,17.00
2023-01-20T21:55:11.950Z,14.33
2023-01-20T21:57:38.883Z,13.57
2023-01-20T22:00:08.955Z,14.47
2023-01-20T22:02:39.494Z,13.83
2023-01-20T22:05:06.881Z,14.33
2023-01-20T22:07:33.459Z,13.63
2023-01-20T22:10:00.049Z,12.97
2023-01-20T22:12:26.693Z,13.03
2023-01-20T22:14:53.329Z,13.23
2023-01-20T22:17:19.834Z,12.93
2023-01-20T22:19:46.380Z,12.90
2023-01-20T22:22:15.092Z,14.57
2023-01-20T22:24:42.039Z,14.00
2023-01-20T22:27:08.725Z,14.17
2023-01-20T22:29:35.338Z,14.70
2023-01-20T22:32:04.008Z,19.43
2023-01-20T22:34:30.687Z,38.40
2023-01-20T22:36:57.946Z,34.30
2023-01-20T22:39:24.536Z,18.30
2023-01-20T22:41:51.131Z,15.97
2023-01-20T22:44:17.722Z,13.90
2023-01-20T22:46:44.279Z,12.63
2023-01-20T22:49:11.465Z,11.37
2023-01-20T22:51:38.102Z,11.00
2023-01-20T22:54:04.934Z,10.10
2023-01-20T22:56:32.184Z,9.90
2023-01-20T22:58:59.540Z,10.20
2023-01-20T23:01:32.378Z,9.93
2023-01-20T23:04:01.564Z,10.07
2023-01-20T23:06:30.601Z,9.67
2023-01-20T23:08:57.086Z,9.20
2023-01-20T23:11:23.902Z,9.03
2023-01-20T23:13:51.900Z,9.63
2023-01-20T23:16:22.733Z,9.50
2023-01-20T23:18:50.997Z,10.60
2023-01-20T23:21:18.213Z,10.97
2023-01-20T23:23:45.135Z,9.87
2023-01-20T23:26:18.887Z,8.87
2023-01-20T23:28:46.647Z,9.57
2023-01-20T23:31:17.583Z,8.67
2023-01-20T23:33:44.733Z,8.87
2023-01-20T23:36:23.730Z,8.70
2023-01-20T23:38:52.468Z,8.10
2023-01-20T23:41:20.008Z,8.37
2023-01-20T23:43:46.545Z,7.60
2023-01-20T23:46:13.181Z,8.03
2023-01-20T23:48:40.088Z,8.10
2023-01-20T23:51:07.473Z,8.23
2023-01-20T23:53:38.488Z,7.33
2023-01-20T23:56:09.876Z,7.07
2023-01-20T23:58:36.456Z,7.63
